sensor_id;sensor_type;location;lat;lon;timestamp;temperature;humidity
58809;DHT22;44579;51.672;7.834;2023-05-10T00:00:03;16.40;75.00
58809;DHT22;44579;51.672;7.834;2023-05-10T00:02:38;16.40;75.00
58809;DHT22;44579;51.672;7.834;2023-05-10T00:05:06;16.30;75.20
58809;DHT22;44579;51.672;7.834;2023-05-10T00:07:34;16.30;75.20
58809;DHT22;44579;51.672;7.834;2023-05-10T00:10:03;16.20;75.20
58809;DHT22;44579;51.672;7.834;2023-05-10T00:12:31;16.10;75.30
58809;DHT22;44579;51.672;7.834;2023-05-10T00:14:58;16.10;75.40
58809;DHT22;44579;51.672;7.834;2023-05-10T00:17:26;16.10;75.50
58809;DHT22;44579;51.672;7.834;2023-05-10T00:19:59;16.10;75.60
58809;DHT22;44579;51.672;7.834;2023-05-10T00:22:30;16.10;75.50
58809;DHT22;44579;51.672;7.834;2023-05-10T00:25:03;16.10;75.40
58809;DHT22;44579;51.672;7.834;2023-05-10T00:27:30;16.10;75.40
58809;DHT22;44579;51.672;7.834;2023-05-10T00:29:58;16.00;75.30
58809;DHT22;44579;51.672;7.834;2023-05-10T00:32:26;16.00;75.30
58809;DHT22;44579;51.672;7.834;2023-05-10T00:34:55;16.00;75.50
58809;DHT22;44579;51.672;7.834;2023-05-10T00:37:26;16.00;75.50
58809;DHT22;44579;51.672;7.834;2023-05-10T00:39:55;16.00;75.50
58809;DHT22;44579;51.672;7.834;2023-05-10T00:42:23;15.90;75.50
58809;DHT22;44579;51.672;7.834;2023-05-10T00:44:53;15.90;75.50
58809;DHT22;44579;51.672;7.834;2023-05-10T00:47:22;15.90;75.50
58809;DHT22;44579;51.672;7.834;2023-05-10T00:49:49;15.90;75.40
58809;DHT22;44579;51.672;7.834;2023-05-10T00:52:17;15.90;75.40
58809;DHT22;44579;51.672;7.834;2023-05-10T00:54:46;15.90;75.40
58809;DHT22;44579;51.672;7.834;2023-05-10T00:57:15;15.90;75.50
58809;DHT22;44579;51.672;7.834;2023-05-10T00:59:43;15.90;75.60
58809;DHT22;44579;51.672;7.834;2023-05-10T01:02:10;15.90;75.60
58809;DHT22;44579;51.672;7.834;2023-05-10T01:04:38;15.90;75.50
58809;DHT22;44579;51.672;7.834;2023-05-10T01:07:05;15.90;75.50
58809;DHT22;44579;51.672;7.834;2023-05-10T01:09:33;16.00;75.40
58809;DHT22;44579;51.672;7.834;2023-05-10T01:12:00;16.00;75.40
58809;DHT22;44579;51.672;7.834;2023-05-10T01:14:28;16.00;75.50
58809;DHT22;44579;51.672;7.834;2023-05-10T01:16:57;15.90;75.50
58809;DHT22;44579;51.672;7.834;2023-05-10T01:19:26;15.90;75.60
58809;DHT22;44579;51.672;7.834;2023-05-10T01:22:01;16.00;75.50
58809;DHT22;44579;51.672;7.834;2023-05-10T01:29:53;16.00;75.50
58809;DHT22;44579;51.672;7.834;2023-05-10T01:35:29;15.90;75.60
58809;DHT22;44579;51.672;7.834;2023-05-10T01:38:00;15.90;75.60
58809;DHT22;44579;51.672;7.834;2023-05-10T01:40:40;15.90;75.60
58809;DHT22;44579;51.672;7.834;2023-05-10T01:43:10;15.80;75.70
58809;DHT22;44579;51.672;7.834;2023-05-10T01:45:41;15.70;75.90
58809;DHT22;44579;51.672;7.834;2023-05-10T01:48:14;15.60;76.10
58809;DHT22;44579;51.672;7.834;2023-05-10T01:50:45;15.60;76.10
58809;DHT22;44579;51.672;7.834;2023-05-10T01:53:13;15.50;76.10
58809;DHT22;44579;51.672;7.834;2023-05-10T01:55:46;15.50;76.30
58809;DHT22;44579;51.672;7.834;2023-05-10T01:58:15;15.50;76.40
58809;DHT22;44579;51.672;7.834;2023-05-10T02:00:44;15.40;76.40
58809;DHT22;44579;51.672;7.834;2023-05-10T02:03:15;15.40;76.40
58809;DHT22;44579;51.672;7.834;2023-05-10T02:05:43;15.30;76.50
58809;DHT22;44579;51.672;7.834;2023-05-10T02:08:12;15.30;76.50
58809;DHT22;44579;51.672;7.834;2023-05-10T02:10:40;15.20;76.50
58809;DHT22;44579;51.672;7.834;2023-05-10T02:13:11;15.20;76.60
58809;DHT22;44579;51.672;7.834;2023-05-10T02:15:40;15.30;76.70
58809;DHT22;44579;51.672;7.834;2023-05-10T02:18:10;15.30;76.60
58809;DHT22;44579;51.672;7.834;2023-05-10T02:20:38;15.30;76.50
58809;DHT22;44579;51.672;7.834;2023-05-10T02:23:06;15.30;76.40
58809;DHT22;44579;51.672;7.834;2023-05-10T02:25:35;15.30;76.40
58809;DHT22;44579;51.672;7.834;2023-05-10T02:28:04;15.30;76.40
58809;DHT22;44579;51.672;7.834;2023-05-10T02:30:35;15.30;76.30
58809;DHT22;44579;51.672;7.834;2023-05-10T02:33:03;15.40;76.30
58809;DHT22;44579;51.672;7.834;2023-05-10T02:35:33;15.30;76.30
58809;DHT22;44579;51.672;7.834;2023-05-10T02:38:02;15.30;76.50
58809;DHT22;44579;51.672;7.834;2023-05-10T02:40:31;15.30;76.60
58809;DHT22;44579;51.672;7.834;2023-05-10T02:42:59;15.30;76.70
58809;DHT22;44579;51.672;7.834;2023-05-10T02:45:29;15.20;77.20
58809;DHT22;44579;51.672;7.834;2023-05-10T02:48:00;15.10;77.50
58809;DHT22;44579;51.672;7.834;2023-05-10T02:50:28;15.10;78.20
58809;DHT22;44579;51.672;7.834;2023-05-10T02:52:59;15.00;78.70
58809;DHT22;44579;51.672;7.834;2023-05-10T02:55:31;15.00;79.70
58809;DHT22;44579;51.672;7.834;2023-05-10T02:58:00;14.90;80.50
58809;DHT22;44579;51.672;7.834;2023-05-10T03:00:27;14.70;81.50
58809;DHT22;44579;51.672;7.834;2023-05-10T03:02:55;14.70;81.70
58809;DHT22;44579;51.672;7.834;2023-05-10T03:05:25;14.70;81.60
58809;DHT22;44579;51.672;7.834;2023-05-10T03:07:53;14.60;81.30
58809;DHT22;44579;51.672;7.834;2023-05-10T03:10:22;14.70;81.20
58809;DHT22;44579;51.672;7.834;2023-05-10T03:18:28;14.70;80.80
58809;DHT22;44579;51.672;7.834;2023-05-10T03:21:02;14.70;80.70
58809;DHT22;44579;51.672;7.834;2023-05-10T03:23:34;14.70;80.50
58809;DHT22;44579;51.672;7.834;2023-05-10T03:26:02;14.80;80.30
58809;DHT22;44579;51.672;7.834;2023-05-10T03:28:33;14.80;80.00
58809;DHT22;44579;51.672;7.834;2023-05-10T03:31:02;14.80;79.90
58809;DHT22;44579;51.672;7.834;2023-05-10T03:33:32;14.70;79.80
58809;DHT22;44579;51.672;7.834;2023-05-10T03:35:59;14.70;79.70
58809;DHT22;44579;51.672;7.834;2023-05-10T03:38:27;14.70;79.70
58809;DHT22;44579;51.672;7.834;2023-05-10T03:40:56;14.70;79.60
58809;DHT22;44579;51.672;7.834;2023-05-10T03:43:23;14.70;80.40
58809;DHT22;44579;51.672;7.834;2023-05-10T03:45:51;14.70;79.40
58809;DHT22;44579;51.672;7.834;2023-05-10T03:48:20;14.60;79.30
58809;DHT22;44579;51.672;7.834;2023-05-10T03:50:50;14.60;79.30
58809;DHT22;44579;51.672;7.834;2023-05-10T03:53:20;14.50;79.30
58809;DHT22;44579;51.672;7.834;2023-05-10T03:55:49;14.50;79.40
58809;DHT22;44579;51.672;7.834;2023-05-10T03:58:30;14.60;79.40
58809;DHT22;44579;51.672;7.834;2023-05-10T04:00:58;14.50;79.20
58809;DHT22;44579;51.672;7.834;2023-05-10T04:03:25;14.60;79.30
58809;DHT22;44579;51.672;7.834;2023-05-10T04:05:59;14.50;79.20
58809;DHT22;44579;51.672;7.834;2023-05-10T04:08:30;14.50;79.20
58809;DHT22;44579;51.672;7.834;2023-05-10T04:11:09;14.60;79.10
58809;DHT22;44579;51.672;7.834;2023-05-10T04:13:37;14.60;79.00
58809;DHT22;44579;51.672;7.834;2023-05-10T04:16:05;14.70;79.00
58809;DHT22;44579;51.672;7.834;2023-05-10T04:18:32;14.70;78.80
58809;DHT22;44579;51.672;7.834;2023-05-10T04:20:59;14.70;78.80
58809;DHT22;44579;51.672;7.834;2023-05-10T04:23:27;14.70;78.80
58809;DHT22;44579;51.672;7.834;2023-05-10T04:26:00;14.70;79.00
58809;DHT22;44579;51.672;7.834;2023-05-10T04:28:27;14.60;78.90
58809;DHT22;44579;51.672;7.834;2023-05-10T04:31:08;14.70;78.80
58809;DHT22;44579;51.672;7.834;2023-05-10T04:33:36;14.70;78.70
58809;DHT22;44579;51.672;7.834;2023-05-10T04:36:03;14.70;78.80
58809;DHT22;44579;51.672;7.834;2023-05-10T04:38:30;14.70;78.80
58809;DHT22;44579;51.672;7.834;2023-05-10T04:41:07;14.70;78.90
58809;DHT22;44579;51.672;7.834;2023-05-10T04:43:34;14.70;78.80
58809;DHT22;44579;51.672;7.834;2023-05-10T04:46:01;14.70;78.90
58809;DHT22;44579;51.672;7.834;2023-05-10T04:48:29;14.70;78.90
58809;DHT22;44579;51.672;7.834;2023-05-10T04:50:55;14.70;78.80
58809;DHT22;44579;51.672;7.834;2023-05-10T04:53:23;14.80;78.90
58809;DHT22;44579;51.672;7.834;2023-05-10T04:55:50;14.80;78.80
58809;DHT22;44579;51.672;7.834;2023-05-10T04:58:16;14.80;78.80
58809;DHT22;44579;51.672;7.834;2023-05-10T05:00:43;14.90;78.80
58809;DHT22;44579;51.672;7.834;2023-05-10T05:03:11;14.90;78.80
58809;DHT22;44579;51.672;7.834;2023-05-10T05:05:40;14.90;78.80
58809;DHT22;44579;51.672;7.834;2023-05-10T05:08:07;14.90;78.70
58809;DHT22;44579;51.672;7.834;2023-05-10T05:10:33;15.00;78.70
58809;DHT22;44579;51.672;7.834;2023-05-10T05:13:00;15.10;78.70
58809;DHT22;44579;51.672;7.834;2023-05-10T05:15:27;15.10;78.60
58809;DHT22;44579;51.672;7.834;2023-05-10T05:17:55;15.20;78.60
58809;DHT22;44579;51.672;7.834;2023-05-10T05:20:22;15.30;78.50
58809;DHT22;44579;51.672;7.834;2023-05-10T05:22:49;15.30;78.40
58809;DHT22;44579;51.672;7.834;2023-05-10T05:25:16;15.40;78.40
58809;DHT22;44579;51.672;7.834;2023-05-10T05:27:43;15.40;78.50
58809;DHT22;44579;51.672;7.834;2023-05-10T05:30:10;15.40;78.60
58809;DHT22;44579;51.672;7.834;2023-05-10T05:32:37;15.40;78.60
58809;DHT22;44579;51.672;7.834;2023-05-10T05:35:04;15.40;78.70
58809;DHT22;44579;51.672;7.834;2023-05-10T05:37:32;15.50;78.80
58809;DHT22;44579;51.672;7.834;2023-05-10T05:39:59;15.50;78.70
58809;DHT22;44579;51.672;7.834;2023-05-10T05:42:28;15.50;78.60
58809;DHT22;44579;51.672;7.834;2023-05-10T05:44:55;15.60;78.70
58809;DHT22;44579;51.672;7.834;2023-05-10T05:47:22;15.60;78.60
58809;DHT22;44579;51.672;7.834;2023-05-10T05:49:49;15.60;78.70
58809;DHT22;44579;51.672;7.834;2023-05-10T05:52:17;15.60;78.70
58809;DHT22;44579;51.672;7.834;2023-05-10T05:54:44;15.60;78.80
58809;DHT22;44579;51.672;7.834;2023-05-10T05:57:12;15.50;78.80
58809;DHT22;44579;51.672;7.834;2023-05-10T05:59:42;15.50;79.10
58809;DHT22;44579;51.672;7.834;2023-05-10T06:02:11;15.50;79.20
58809;DHT22;44579;51.672;7.834;2023-05-10T06:04:38;15.50;79.30
58809;DHT22;44579;51.672;7.834;2023-05-10T06:07:07;15.50;79.30
58809;DHT22;44579;51.672;7.834;2023-05-10T06:09:33;15.50;79.40
58809;DHT22;44579;51.672;7.834;2023-05-10T06:12:03;15.50;79.50
58809;DHT22;44579;51.672;7.834;2023-05-10T06:14:29;15.60;79.50
58809;DHT22;44579;51.672;7.834;2023-05-10T06:16:57;15.60;79.40
58809;DHT22;44579;51.672;7.834;2023-05-10T06:19:24;15.60;79.30
58809;DHT22;44579;51.672;7.834;2023-05-10T06:21:53;15.70;79.30
58809;DHT22;44579;51.672;7.834;2023-05-10T06:24:19;15.80;79.20
58809;DHT22;44579;51.672;7.834;2023-05-10T06:26:46;15.80;79.20
58809;DHT22;44579;51.672;7.834;2023-05-10T06:29:13;15.80;79.20
58809;DHT22;44579;51.672;7.834;2023-05-10T06:31:41;15.70;79.40
58809;DHT22;44579;51.672;7.834;2023-05-10T06:34:08;15.60;79.50
58809;DHT22;44579;51.672;7.834;2023-05-10T06:36:39;15.60;79.60
58809;DHT22;44579;51.672;7.834;2023-05-10T06:39:06;15.60;79.60
58809;DHT22;44579;51.672;7.834;2023-05-10T06:41:33;15.70;79.70
58809;DHT22;44579;51.672;7.834;2023-05-10T06:44:00;15.70;79.50
58809;DHT22;44579;51.672;7.834;2023-05-10T06:46:27;15.70;79.60
58809;DHT22;44579;51.672;7.834;2023-05-10T06:48:54;15.70;79.60
58809;DHT22;44579;51.672;7.834;2023-05-10T06:51:21;15.70;79.70
58809;DHT22;44579;51.672;7.834;2023-05-10T06:53:48;15.70;79.70
58809;DHT22;44579;51.672;7.834;2023-05-10T06:56:16;15.70;79.70
58809;DHT22;44579;51.672;7.834;2023-05-10T06:58:43;15.80;79.90
58809;DHT22;44579;51.672;7.834;2023-05-10T07:01:10;15.80;79.60
58809;DHT22;44579;51.672;7.834;2023-05-10T07:03:37;15.90;79.70
58809;DHT22;44579;51.672;7.834;2023-05-10T07:06:04;15.90;79.70
58809;DHT22;44579;51.672;7.834;2023-05-10T07:08:31;15.90;79.70
58809;DHT22;44579;51.672;7.834;2023-05-10T07:10:59;15.90;79.70
58809;DHT22;44579;51.672;7.834;2023-05-10T07:13:26;16.00;79.80
58809;DHT22;44579;51.672;7.834;2023-05-10T07:15:53;16.10;79.70
58809;DHT22;44579;51.672;7.834;2023-05-10T07:18:21;16.20;79.70
58809;DHT22;44579;51.672;7.834;2023-05-10T07:20:47;16.20;79.60
58809;DHT22;44579;51.672;7.834;2023-05-10T07:23:15;16.20;79.70
58809;DHT22;44579;51.672;7.834;2023-05-10T07:25:47;16.30;79.90
58809;DHT22;44579;51.672;7.834;2023-05-10T07:28:15;16.30;79.80
58809;DHT22;44579;51.672;7.834;2023-05-10T07:30:42;16.40;80.00
58809;DHT22;44579;51.672;7.834;2023-05-10T07:33:10;16.40;80.00
58809;DHT22;44579;51.672;7.834;2023-05-10T07:35:39;16.50;80.10
58809;DHT22;44579;51.672;7.834;2023-05-10T07:38:06;16.50;80.10
58809;DHT22;44579;51.672;7.834;2023-05-10T07:40:33;16.50;80.40
58809;DHT22;44579;51.672;7.834;2023-05-10T07:43:00;16.40;81.00
58809;DHT22;44579;51.672;7.834;2023-05-10T07:45:30;16.30;81.40
58809;DHT22;44579;51.672;7.834;2023-05-10T07:47:57;16.50;81.60
58809;DHT22;44579;51.672;7.834;2023-05-10T07:50:26;16.60;81.80
58809;DHT22;44579;51.672;7.834;2023-05-10T07:52:53;16.70;81.60
58809;DHT22;44579;51.672;7.834;2023-05-10T07:55:20;16.80;81.70
58809;DHT22;44579;51.672;7.834;2023-05-10T07:57:48;17.00;81.70
58809;DHT22;44579;51.672;7.834;2023-05-10T08:00:16;17.20;81.60
58809;DHT22;44579;51.672;7.834;2023-05-10T08:02:43;17.50;81.70
58809;DHT22;44579;51.672;7.834;2023-05-10T08:05:10;17.60;81.60
58809;DHT22;44579;51.672;7.834;2023-05-10T08:07:38;17.80;81.70
58809;DHT22;44579;51.672;7.834;2023-05-10T08:10:05;17.90;82.00
58809;DHT22;44579;51.672;7.834;2023-05-10T08:12:32;17.90;82.10
58809;DHT22;44579;51.672;7.834;2023-05-10T08:14:59;18.00;82.40
58809;DHT22;44579;51.672;7.834;2023-05-10T08:17:25;17.90;82.40
58809;DHT22;44579;51.672;7.834;2023-05-10T08:19:54;17.90;82.40
58809;DHT22;44579;51.672;7.834;2023-05-10T08:22:21;17.90;82.70
58809;DHT22;44579;51.672;7.834;2023-05-10T08:24:49;17.90;82.90
58809;DHT22;44579;51.672;7.834;2023-05-10T08:27:16;17.90;83.10
58809;DHT22;44579;51.672;7.834;2023-05-10T08:29:43;18.00;83.20
58809;DHT22;44579;51.672;7.834;2023-05-10T08:32:16;17.90;83.60
58809;DHT22;44579;51.672;7.834;2023-05-10T08:34:43;18.00;83.50
58809;DHT22;44579;51.672;7.834;2023-05-10T08:37:10;18.00;83.50
58809;DHT22;44579;51.672;7.834;2023-05-10T08:39:40;18.10;83.70
58809;DHT22;44579;51.672;7.834;2023-05-10T08:42:07;18.20;83.60
58809;DHT22;44579;51.672;7.834;2023-05-10T08:44:35;18.30;83.70
58809;DHT22;44579;51.672;7.834;2023-05-10T08:47:04;18.30;83.50
58809;DHT22;44579;51.672;7.834;2023-05-10T08:49:31;18.50;83.80
58809;DHT22;44579;51.672;7.834;2023-05-10T08:52:00;18.60;83.80
58809;DHT22;44579;51.672;7.834;2023-05-10T08:54:28;18.70;83.60
58809;DHT22;44579;51.672;7.834;2023-05-10T08:56:57;18.60;83.70
58809;DHT22;44579;51.672;7.834;2023-05-10T08:59:27;18.70;83.90
58809;DHT22;44579;51.672;7.834;2023-05-10T09:01:54;18.70;83.80
58809;DHT22;44579;51.672;7.834;2023-05-10T09:04:22;18.80;83.80
58809;DHT22;44579;51.672;7.834;2023-05-10T09:06:49;18.60;83.90
58809;DHT22;44579;51.672;7.834;2023-05-10T09:09:17;18.60;84.00
58809;DHT22;44579;51.672;7.834;2023-05-10T09:11:45;18.50;84.10
58809;DHT22;44579;51.672;7.834;2023-05-10T09:14:12;18.40;84.20
58809;DHT22;44579;51.672;7.834;2023-05-10T09:16:39;18.30;84.10
58809;DHT22;44579;51.672;7.834;2023-05-10T09:19:07;18.20;84.20
58809;DHT22;44579;51.672;7.834;2023-05-10T09:21:35;18.10;84.40
58809;DHT22;44579;51.672;7.834;2023-05-10T09:24:05;18.10;84.40
58809;DHT22;44579;51.672;7.834;2023-05-10T09:26:35;18.00;84.30
58809;DHT22;44579;51.672;7.834;2023-05-10T09:29:12;18.00;84.40
58809;DHT22;44579;51.672;7.834;2023-05-10T09:31:49;18.00;84.30
58809;DHT22;44579;51.672;7.834;2023-05-10T09:34:28;18.20;84.30
58809;DHT22;44579;51.672;7.834;2023-05-10T09:36:59;18.20;84.20
58809;DHT22;44579;51.672;7.834;2023-05-10T09:39:34;18.40;84.30
58809;DHT22;44579;51.672;7.834;2023-05-10T09:42:06;18.30;84.30
58809;DHT22;44579;51.672;7.834;2023-05-10T09:44:33;18.30;84.60
58809;DHT22;44579;51.672;7.834;2023-05-10T09:47:01;18.30;84.80
58809;DHT22;44579;51.672;7.834;2023-05-10T09:49:28;18.40;84.60
58809;DHT22;44579;51.672;7.834;2023-05-10T09:52:02;18.60;84.30
58809;DHT22;44579;51.672;7.834;2023-05-10T09:54:30;18.70;84.20
58809;DHT22;44579;51.672;7.834;2023-05-10T09:56:57;18.70;84.30
58809;DHT22;44579;51.672;7.834;2023-05-10T09:59:27;18.70;84.60
58809;DHT22;44579;51.672;7.834;2023-05-10T10:01:58;18.70;84.90
58809;DHT22;44579;51.672;7.834;2023-05-10T10:04:26;18.80;84.80
58809;DHT22;44579;51.672;7.834;2023-05-10T10:07:00;18.90;84.70
58809;DHT22;44579;51.672;7.834;2023-05-10T10:09:28;18.80;84.80
58809;DHT22;44579;51.672;7.834;2023-05-10T10:11:56;18.80;85.20
58809;DHT22;44579;51.672;7.834;2023-05-10T10:14:26;18.90;85.40
58809;DHT22;44579;51.672;7.834;2023-05-10T10:16:52;19.00;85.40
58809;DHT22;44579;51.672;7.834;2023-05-10T10:19:34;19.00;85.40
58809;DHT22;44579;51.672;7.834;2023-05-10T10:22:04;19.10;85.70
58809;DHT22;44579;51.672;7.834;2023-05-10T10:24:32;19.10;85.70
58809;DHT22;44579;51.672;7.834;2023-05-10T10:27:02;18.80;85.70
58809;DHT22;44579;51.672;7.834;2023-05-10T10:29:47;18.60;86.10
58809;DHT22;44579;51.672;7.834;2023-05-10T10:35:03;18.30;86.60
58809;DHT22;44579;51.672;7.834;2023-05-10T10:37:44;18.50;86.50
58809;DHT22;44579;51.672;7.834;2023-05-10T10:40:28;18.50;86.10
58809;DHT22;44579;51.672;7.834;2023-05-10T10:45:48;18.70;85.90
58809;DHT22;44579;51.672;7.834;2023-05-10T10:48:33;18.70;85.60
58809;DHT22;44579;51.672;7.834;2023-05-10T10:51:00;18.80;85.60
58809;DHT22;44579;51.672;7.834;2023-05-10T10:53:27;19.00;85.40
58809;DHT22;44579;51.672;7.834;2023-05-10T10:56:29;19.00;85.20
58809;DHT22;44579;51.672;7.834;2023-05-10T10:58:51;19.10;85.10
58809;DHT22;44579;51.672;7.834;2023-05-10T11:01:19;19.10;85.20
58809;DHT22;44579;51.672;7.834;2023-05-10T11:06:29;19.00;85.50
58809;DHT22;44579;51.672;7.834;2023-05-10T11:08:59;18.90;85.50
58809;DHT22;44579;51.672;7.834;2023-05-10T11:11:26;18.90;85.80
58809;DHT22;44579;51.672;7.834;2023-05-10T11:13:53;18.90;85.70
58809;DHT22;44579;51.672;7.834;2023-05-10T11:16:28;18.90;85.70
58809;DHT22;44579;51.672;7.834;2023-05-10T11:19:07;18.90;85.90
58809;DHT22;44579;51.672;7.834;2023-05-10T11:21:45;19.10;85.80
58809;DHT22;44579;51.672;7.834;2023-05-10T11:24:15;19.30;86.50
58809;DHT22;44579;51.672;7.834;2023-05-10T11:26:43;19.50;85.40
58809;DHT22;44579;51.672;7.834;2023-05-10T11:29:10;19.70;85.40
58809;DHT22;44579;51.672;7.834;2023-05-10T11:31:42;19.80;85.20
58809;DHT22;44579;51.672;7.834;2023-05-10T11:34:10;20.00;85.10
58809;DHT22;44579;51.672;7.834;2023-05-10T11:36:37;20.00;85.10
58809;DHT22;44579;51.672;7.834;2023-05-10T11:39:05;19.90;85.30
58809;DHT22;44579;51.672;7.834;2023-05-10T11:41:32;19.80;85.80
58809;DHT22;44579;51.672;7.834;2023-05-10T11:43:59;19.80;86.00
58809;DHT22;44579;51.672;7.834;2023-05-10T11:46:27;19.90;86.40
58809;DHT22;44579;51.672;7.834;2023-05-10T11:48:58;20.00;86.30
58809;DHT22;44579;51.672;7.834;2023-05-10T11:51:28;20.00;86.60
58809;DHT22;44579;51.672;7.834;2023-05-10T11:53:56;19.90;86.80
58809;DHT22;44579;51.672;7.834;2023-05-10T11:56:23;19.50;87.20
58809;DHT22;44579;51.672;7.834;2023-05-10T11:58:55;19.40;87.80
58809;DHT22;44579;51.672;7.834;2023-05-10T12:01:23;19.10;87.80
58809;DHT22;44579;51.672;7.834;2023-05-10T12:03:50;18.80;87.80
58809;DHT22;44579;51.672;7.834;2023-05-10T12:06:17;18.50;88.10
58809;DHT22;44579;51.672;7.834;2023-05-10T12:08:44;18.30;88.70
58809;DHT22;44579;51.672;7.834;2023-05-10T12:11:12;18.20;88.80
58809;DHT22;44579;51.672;7.834;2023-05-10T12:13:42;18.20;88.70
58809;DHT22;44579;51.672;7.834;2023-05-10T12:16:20;18.30;88.10
58809;DHT22;44579;51.672;7.834;2023-05-10T12:18:50;18.50;87.50
58809;DHT22;44579;51.672;7.834;2023-05-10T12:21:18;18.70;87.40
58809;DHT22;44579;51.672;7.834;2023-05-10T12:23:45;18.90;86.80
58809;DHT22;44579;51.672;7.834;2023-05-10T12:26:13;19.10;86.60
58809;DHT22;44579;51.672;7.834;2023-05-10T12:28:39;19.10;87.00
58809;DHT22;44579;51.672;7.834;2023-05-10T12:31:06;19.00;87.10
58809;DHT22;44579;51.672;7.834;2023-05-10T12:33:43;18.90;87.50
58809;DHT22;44579;51.672;7.834;2023-05-10T12:36:13;19.00;87.60
58809;DHT22;44579;51.672;7.834;2023-05-10T12:38:41;19.00;87.60
58809;DHT22;44579;51.672;7.834;2023-05-10T12:41:17;19.10;87.60
58809;DHT22;44579;51.672;7.834;2023-05-10T12:43:44;19.10;87.50
58809;DHT22;44579;51.672;7.834;2023-05-10T12:46:13;19.20;87.40
58809;DHT22;44579;51.672;7.834;2023-05-10T12:48:42;19.10;87.20
58809;DHT22;44579;51.672;7.834;2023-05-10T12:51:10;19.20;86.90
58809;DHT22;44579;51.672;7.834;2023-05-10T12:53:45;19.20;86.60
58809;DHT22;44579;51.672;7.834;2023-05-10T12:56:15;19.30;86.40
58809;DHT22;44579;51.672;7.834;2023-05-10T12:58:41;19.20;86.40
58809;DHT22;44579;51.672;7.834;2023-05-10T13:01:14;19.20;87.30
58809;DHT22;44579;51.672;7.834;2023-05-10T13:03:41;19.30;86.60
58809;DHT22;44579;51.672;7.834;2023-05-10T13:06:09;19.40;85.50
58809;DHT22;44579;51.672;7.834;2023-05-10T13:08:36;19.50;85.10
58809;DHT22;44579;51.672;7.834;2023-05-10T13:11:02;19.40;83.60
58809;DHT22;44579;51.672;7.834;2023-05-10T13:13:29;19.40;83.90
58809;DHT22;44579;51.672;7.834;2023-05-10T13:15:56;19.40;84.00
58809;DHT22;44579;51.672;7.834;2023-05-10T13:18:23;19.50;83.80
58809;DHT22;44579;51.672;7.834;2023-05-10T13:20:51;19.40;82.80
58809;DHT22;44579;51.672;7.834;2023-05-10T13:23:17;19.40;83.00
58809;DHT22;44579;51.672;7.834;2023-05-10T13:25:44;19.60;83.40
58809;DHT22;44579;51.672;7.834;2023-05-10T13:28:11;19.60;83.40
58809;DHT22;44579;51.672;7.834;2023-05-10T13:30:37;19.70;83.20
58809;DHT22;44579;51.672;7.834;2023-05-10T13:33:04;19.70;83.30
58809;DHT22;44579;51.672;7.834;2023-05-10T13:35:31;19.70;83.50
58809;DHT22;44579;51.672;7.834;2023-05-10T13:37:58;19.80;83.10
58809;DHT22;44579;51.672;7.834;2023-05-10T13:40:25;19.80;83.20
58809;DHT22;44579;51.672;7.834;2023-05-10T13:42:51;19.90;83.50
58809;DHT22;44579;51.672;7.834;2023-05-10T13:45:19;20.00;83.60
58809;DHT22;44579;51.672;7.834;2023-05-10T13:47:46;20.00;83.40
58809;DHT22;44579;51.672;7.834;2023-05-10T13:50:12;20.10;83.50
58809;DHT22;44579;51.672;7.834;2023-05-10T13:52:39;20.10;83.30
58809;DHT22;44579;51.672;7.834;2023-05-10T13:55:06;20.10;82.80
58809;DHT22;44579;51.672;7.834;2023-05-10T13:57:33;20.20;82.90
58809;DHT22;44579;51.672;7.834;2023-05-10T14:00:02;20.20;82.80
58809;DHT22;44579;51.672;7.834;2023-05-10T14:02:33;20.20;83.10
58809;DHT22;44579;51.672;7.834;2023-05-10T14:05:01;20.20;82.90
58809;DHT22;44579;51.672;7.834;2023-05-10T14:07:27;20.20;82.60
58809;DHT22;44579;51.672;7.834;2023-05-10T14:09:54;20.30;82.70
58809;DHT22;44579;51.672;7.834;2023-05-10T14:12:21;20.30;82.60
58809;DHT22;44579;51.672;7.834;2023-05-10T14:14:48;20.40;82.40
58809;DHT22;44579;51.672;7.834;2023-05-10T14:17:14;20.30;82.10
58809;DHT22;44579;51.672;7.834;2023-05-10T14:19:41;20.20;82.60
58809;DHT22;44579;51.672;7.834;2023-05-10T14:22:08;20.10;82.90
58809;DHT22;44579;51.672;7.834;2023-05-10T14:24:35;20.10;82.80
58809;DHT22;44579;51.672;7.834;2023-05-10T14:27:04;20.10;83.00
58809;DHT22;44579;51.672;7.834;2023-05-10T14:29:32;20.20;83.00
58809;DHT22;44579;51.672;7.834;2023-05-10T14:31:59;20.30;82.50
58809;DHT22;44579;51.672;7.834;2023-05-10T14:34:26;20.30;82.60
58809;DHT22;44579;51.672;7.834;2023-05-10T14:36:52;20.50;82.60
58809;DHT22;44579;51.672;7.834;2023-05-10T14:39:19;20.60;82.50
58809;DHT22;44579;51.672;7.834;2023-05-10T14:41:46;20.70;82.50
58809;DHT22;44579;51.672;7.834;2023-05-10T14:44:13;20.80;82.50
58809;DHT22;44579;51.672;7.834;2023-05-10T14:46:41;21.00;82.60
58809;DHT22;44579;51.672;7.834;2023-05-10T14:49:08;21.00;82.40
58809;DHT22;44579;51.672;7.834;2023-05-10T14:51:35;21.00;82.50
58809;DHT22;44579;51.672;7.834;2023-05-10T14:54:03;21.00;82.60
58809;DHT22;44579;51.672;7.834;2023-05-10T14:56:30;20.90;82.50
58809;DHT22;44579;51.672;7.834;2023-05-10T14:58:57;20.80;82.40
58809;DHT22;44579;51.672;7.834;2023-05-10T15:01:24;20.80;82.70
58809;DHT22;44579;51.672;7.834;2023-05-10T15:03:51;20.80;81.30
58809;DHT22;44579;51.672;7.834;2023-05-10T15:06:22;20.70;78.40
58809;DHT22;44579;51.672;7.834;2023-05-10T15:08:49;20.50;77.00
58809;DHT22;44579;51.672;7.834;2023-05-10T15:11:16;20.40;78.20
58809;DHT22;44579;51.672;7.834;2023-05-10T15:13:42;20.30;78.30
58809;DHT22;44579;51.672;7.834;2023-05-10T15:16:09;20.30;78.80
58809;DHT22;44579;51.672;7.834;2023-05-10T15:18:37;20.30;79.10
58809;DHT22;44579;51.672;7.834;2023-05-10T15:21:03;20.40;79.10
58809;DHT22;44579;51.672;7.834;2023-05-10T15:23:30;20.50;78.90
58809;DHT22;44579;51.672;7.834;2023-05-10T15:25:57;20.60;78.60
58809;DHT22;44579;51.672;7.834;2023-05-10T15:28:23;20.70;78.50
58809;DHT22;44579;51.672;7.834;2023-05-10T15:30:50;20.70;78.50
58809;DHT22;44579;51.672;7.834;2023-05-10T15:33:17;20.80;78.40
58809;DHT22;44579;51.672;7.834;2023-05-10T15:35:44;20.70;78.40
58809;DHT22;44579;51.672;7.834;2023-05-10T15:38:11;20.60;75.50
58809;DHT22;44579;51.672;7.834;2023-05-10T15:40:38;20.40;74.50
58809;DHT22;44579;51.672;7.834;2023-05-10T15:43:04;20.50;75.00
58809;DHT22;44579;51.672;7.834;2023-05-10T15:45:34;20.50;75.00
58809;DHT22;44579;51.672;7.834;2023-05-10T15:48:03;20.50;74.50
58809;DHT22;44579;51.672;7.834;2023-05-10T15:50:30;20.50;74.80
58809;DHT22;44579;51.672;7.834;2023-05-10T15:52:57;20.60;74.80
58809;DHT22;44579;51.672;7.834;2023-05-10T15:55:23;20.60;74.80
58809;DHT22;44579;51.672;7.834;2023-05-10T15:57:50;20.60;74.90
58809;DHT22;44579;51.672;7.834;2023-05-10T16:00:17;20.70;74.70